FD38 weather

Wellington Aero Club Airport
West Palm Beach, Florida, United States

Public forecast

Using degrees Fahrenheit for public forecast. Weather courtesy of forecast.io.

METAR (pilot weather report)

Closest report is Palm Beach International Airport, 10.9 nm (20.2 km) ENE. Retrieved 2019/06/15 21:53 UTC (13 minutes ago):

KPBI 152153Z 13011KT 10SM BKN020 BKN100 BKN200 29/24 A3005 RMK AO2 SLP175 VCSH S NW-NE T02890239 $

TAF (pilot weather forecast)

Closest forecast is Palm Beach International Airport, 10.9 nm (20.2 km) ENE. Retrieved 2019/06/15 18:42 UTC (3 hours ago):

TAF KPBI 151739Z 1518/1618 10009KT P6SM VCTS SCT025CB BKN200 FM152000 12008KT P6SM SCT030 SCT060 BKN200 FM160200 15005KT P6SM SCT025 SCT250 FM161400 13010KT P6SM SCT025 SCT250 PROB30 1614/1618 3SM TSRA SCT025CB BKN050 BKN200